Time;durP1;ratioP1;P1;durP2;ratioP2;P2;SDS_P1;SDS_P2;PMS_P1;PMS_P2;Temp;Humidity;BMP_temperature;BMP_pressure;BME280_temperature;BME280_humidity;BME280_pressure;Samples;Min_cycle;Max_cycle;Signal;HPM_P1;HPM_P2
2022/11/16 00:01:32;;;;;;;17.08;10.82;;;13.50;85.30;;;;;;5048790;28;20434;-67
2022/11/16 00:03:59;;;;;;;17.80;11.60;;;13.50;85.40;;;;;;5052673;28;20163;-67
2022/11/16 00:06:26;;;;;;;15.63;10.70;;;13.50;85.40;;;;;;5042320;28;20044;-67
2022/11/16 00:11:40;;;;;;;16.35;9.98;;;13.50;86.10;;;;;;5033100;28;20037;-67
2022/11/16 00:14:06;;;;;;;15.73;10.75;;;13.60;85.40;;;;;;5033920;28;20045;-67
2022/11/16 00:16:32;;;;;;;19.05;11.88;;;13.60;85.40;;;;;;5032611;28;20033;-67
2022/11/16 00:19:00;;;;;;;16.20;10.68;;;13.60;85.40;;;;;;5032477;28;20106;-67
2022/11/16 00:21:26;;;;;;;17.85;11.07;;;13.60;85.50;;;;;;5033652;28;20030;-67
2022/11/16 00:23:52;;;;;;;16.27;10.93;;;13.60;85.50;;;;;;5033398;28;20033;-67
2022/11/16 00:26:18;;;;;;;15.55;11.05;;;13.60;85.50;;;;;;5048732;28;20339;-67
2022/11/16 00:28:44;;;;;;;16.58;11.88;;;13.60;85.60;;;;;;5031832;28;20033;-67
2022/11/16 00:31:10;;;;;;;17.10;10.98;;;13.60;85.60;;;;;;5035388;28;20029;-67
2022/11/16 00:33:36;;;;;;;15.93;10.98;;;13.60;85.60;;;;;;5040665;28;20029;-68
2022/11/16 00:36:07;;;;;;;16.33;10.98;;;13.50;85.60;;;;;;5043987;28;20063;-67
2022/11/16 00:38:33;;;;;;;17.95;12.15;;;13.60;85.70;;;;;;5036445;28;20025;-67
2022/11/16 00:40:58;;;;;;;19.58;12.85;;;13.60;85.70;;;;;;5053711;28;20024;-67
2022/11/16 00:43:25;;;;;;;17.70;11.43;;;13.60;85.70;;;;;;5037532;28;20167;-67
2022/11/16 00:45:51;;;;;;;17.20;11.32;;;13.60;85.80;;;;;;5026747;28;20064;-67
2022/11/16 00:48:16;;;;;;;16.80;11.38;;;13.60;85.80;;;;;;5033714;28;20053;-67
2022/11/16 00:50:44;;;;;;;16.77;11.20;;;13.60;85.80;;;;;;5032561;28;20038;-67
2022/11/16 00:53:12;;;;;;;15.98;11.32;;;13.60;85.80;;;;;;5031209;28;20033;-67
2022/11/16 00:55:38;;;;;;;17.38;11.35;;;13.60;85.90;;;;;;5051240;28;20025;-67
2022/11/16 00:58:04;;;;;;;15.77;10.23;;;13.60;85.90;;;;;;5023023;28;20523;-67
2022/11/16 01:00:30;;;;;;;15.95;10.55;;;13.50;85.80;;;;;;5057174;28;20025;-67
2022/11/16 01:02:55;;;;;;;16.52;10.98;;;13.60;85.90;;;;;;5047584;28;20044;-67
2022/11/16 01:05:21;;;;;;;15.05;10.68;;;13.60;85.90;;;;;;5068588;28;20104;-67
2022/11/16 01:07:47;;;;;;;14.57;10.10;;;13.60;86.00;;;;;;5042665;28;20021;-67
2022/11/16 01:10:16;;;;;;;14.48;10.05;;;13.60;86.00;;;;;;5065599;28;20059;-67
2022/11/16 01:12:43;;;;;;;15.30;10.25;;;13.50;86.10;;;;;;5039875;28;20027;-67
2022/11/16 01:15:09;;;;;;;13.80;9.52;;;13.50;86.10;;;;;;5048639;28;20357;-67
2022/11/16 01:17:37;;;;;;;14.07;9.68;;;13.50;86.10;;;;;;5047368;28;20045;-67
2022/11/16 01:20:04;;;;;;;15.80;10.13;;;13.50;86.10;;;;;;5050768;28;20041;-67
2022/11/16 01:22:33;;;;;;;14.38;9.70;;;13.50;86.10;;;;;;5054203;28;20052;-67
2022/11/16 01:24:59;;;;;;;15.25;9.80;;;13.50;86.20;;;;;;5042841;28;20029;-67
2022/11/16 01:27:24;;;;;;;14.40;10.15;;;13.50;86.20;;;;;;5043996;28;20461;-67
2022/11/16 01:29:50;;;;;;;13.85;9.80;;;13.50;86.30;;;;;;5052526;28;20089;-67
2022/11/16 01:32:16;;;;;;;15.20;9.88;;;13.50;86.30;;;;;;5041894;28;20362;-67
2022/11/16 01:34:42;;;;;;;14.38;10.23;;;13.50;86.30;;;;;;5051246;28;20037;-67
2022/11/16 01:37:20;;;;;;;15.13;9.68;;;13.50;86.30;;;;;;5034740;28;20037;-66
2022/11/16 01:39:49;;;;;;;13.20;9.30;;;13.50;86.30;;;;;;5050603;28;20311;-67
2022/11/16 01:42:21;;;;;;;15.95;9.80;;;13.50;86.40;;;;;;5047185;28;20025;-67
2022/11/16 01:45:01;;;;;;;14.57;9.90;;;13.50;86.50;;;;;;5044357;28;20033;-67
2022/11/16 01:47:28;;;;;;;13.75;9.23;;;13.50;86.50;;;;;;5043900;28;20026;-67
2022/11/16 01:50:02;;;;;;;13.25;9.40;;;13.50;86.50;;;;;;5050091;28;20036;-67
2022/11/16 01:52:34;;;;;;;13.77;9.25;;;13.50;86.50;;;;;;5052049;28;20044;-67
2022/11/16 01:55:01;;;;;;;14.88;9.25;;;13.50;86.50;;;;;;5044580;28;20062;-67
2022/11/16 01:57:36;;;;;;;11.65;8.40;;;13.50;86.50;;;;;;5045164;28;20488;-67
2022/11/16 02:00:08;;;;;;;15.82;8.80;;;13.50;86.60;;;;;;5034923;28;20030;-67
2022/11/16 02:02:40;;;;;;;12.00;8.10;;;13.50;86.60;;;;;;5045317;28;20174;-67
2022/11/16 02:05:15;;;;;;;14.10;10.48;;;13.50;86.60;;;;;;5044601;28;20021;-67
2022/11/16 02:11:19;;;;;;;15.30;10.25;;;13.50;86.50;;;;;;5070633;28;20025;-67
2022/11/16 02:13:56;;;;;;;14.10;9.55;;;13.50;86.50;;;;;;5045492;28;20029;-67
2022/11/16 02:16:57;;;;;;;14.20;8.98;;;13.50;86.50;;;;;;5039562;28;20526;-67
2022/11/16 02:20:23;;;;;;;12.52;8.48;;;13.50;86.50;;;;;;5044898;28;20029;-67
2022/11/16 02:23:11;;;;;;;12.82;7.68;;;13.50;86.40;;;;;;5034439;28;20033;-67
2022/11/16 02:26:08;;;;;;;12.38;8.40;;;13.50;86.60;;;;;;5039967;28;20018;-67
2022/11/16 02:28:41;;;;;;;13.32;8.55;;;13.50;86.60;;;;;;5035123;28;20028;-67
2022/11/16 02:31:11;;;;;;;11.65;8.20;;;13.50;86.60;;;;;;5045922;28;20025;-67
2022/11/16 02:33:39;;;;;;;12.35;8.68;;;13.50;86.70;;;;;;5022016;28;20018;-67
2022/11/16 02:36:08;;;;;;;11.75;8.68;;;13.50;86.70;;;;;;5051210;28;20033;-67
2022/11/16 02:38:38;;;;;;;11.77;7.85;;;13.50;86.70;;;;;;5034004;28;20033;-67
2022/11/16 02:41:10;;;;;;;11.68;7.80;;;13.50;86.80;;;;;;5022083;28;20022;-67
2022/11/16 02:43:51;;;;;;;12.57;8.13;;;13.50;86.70;;;;;;5044909;28;20021;-67
2022/11/16 02:46:27;;;;;;;11.57;7.40;;;13.50;86.70;;;;;;5034284;28;20028;-67
2022/11/16 02:48:56;;;;;;;10.73;7.78;;;13.50;86.70;;;;;;5017131;28;20057;-66
2022/11/16 02:51:25;;;;;;;11.63;8.50;;;13.50;86.70;;;;;;5035761;28;20033;-67
2022/11/16 02:54:01;;;;;;;12.15;8.05;;;13.50;86.70;;;;;;5033998;28;20023;-67
2022/11/16 02:56:28;;;;;;;11.13;7.60;;;13.50;86.70;;;;;;5048466;28;20075;-67
2022/11/16 02:58:58;;;;;;;11.30;7.75;;;13.50;86.70;;;;;;5034061;28;20029;-67
2022/11/16 03:01:33;;;;;;;10.88;7.38;;;13.50;86.70;;;;;;5018231;28;20049;-67
2022/11/16 03:04:22;;;;;;;11.77;7.97;;;13.50;86.70;;;;;;5033098;28;21300;-67
2022/11/16 03:06:50;;;;;;;11.13;7.38;;;13.50;86.70;;;;;;5025587;28;20124;-67
2022/11/16 03:09:29;;;;;;;11.10;7.38;;;13.50;86.70;;;;;;5033577;28;20026;-67
2022/11/16 03:11:58;;;;;;;11.30;7.40;;;13.50;86.60;;;;;;5034059;28;20028;-67
2022/11/16 03:14:46;;;;;;;11.18;7.57;;;13.50;86.60;;;;;;5031661;28;20025;-67
2022/11/16 03:17:22;;;;;;;12.60;8.07;;;13.50;86.70;;;;;;5041581;28;20042;-67
2022/11/16 03:19:58;;;;;;;11.27;7.93;;;13.50;86.70;;;;;;5030721;28;20021;-67
2022/11/16 03:22:34;;;;;;;16.00;8.80;;;13.50;86.70;;;;;;5042793;28;20109;-67
2022/11/16 03:25:00;;;;;;;10.95;8.10;;;13.50;86.70;;;;;;5039066;28;20434;-67
2022/11/16 03:27:48;;;;;;;12.55;8.23;;;13.50;86.70;;;;;;5042723;28;20024;-67
2022/11/16 03:30:20;;;;;;;10.45;7.05;;;13.50;86.80;;;;;;5044691;28;20029;-67
2022/11/16 03:32:59;;;;;;;13.50;7.97;;;13.50;86.80;;;;;;5038851;28;20048;-67
2022/11/16 03:35:33;;;;;;;11.30;7.70;;;13.40;86.70;;;;;;5034496;28;20055;-67
2022/11/16 03:38:02;;;;;;;12.20;7.78;;;13.40;86.80;;;;;;5048777;28;20059;-67
2022/11/16 03:40:31;;;;;;;12.23;8.18;;;13.40;86.80;;;;;;5044161;28;20087;-67
2022/11/16 03:42:59;;;;;;;11.75;7.50;;;13.40;86.90;;;;;;5035580;28;20079;-67
2022/11/16 03:45:25;;;;;;;13.40;8.30;;;13.50;86.90;;;;;;5043584;28;20100;-67
2022/11/16 03:47:52;;;;;;;12.90;7.75;;;13.40;86.90;;;;;;5046513;28;20107;-67
2022/11/16 03:50:19;;;;;;;13.10;8.38;;;13.40;86.90;;;;;;5031925;28;20021;-67
2022/11/16 03:52:45;;;;;;;12.25;8.50;;;13.40;86.90;;;;;;5041407;28;20192;-67
2022/11/16 03:55:12;;;;;;;11.90;8.27;;;13.40;87.00;;;;;;5027161;28;20041;-67
2022/11/16 03:57:37;;;;;;;11.95;8.32;;;13.40;87.00;;;;;;5025262;28;20025;-67
2022/11/16 04:00:05;;;;;;;15.43;9.55;;;13.40;87.00;;;;;;5041529;28;20032;-67
2022/11/16 04:02:38;;;;;;;12.45;8.85;;;13.50;87.10;;;;;;5042076;28;20102;-67
2022/11/16 04:24:37;;;;;;;12.50;8.43;;;13.40;87.20;;;;;;5065347;28;20343;-67
2022/11/16 04:29:52;;;;;;;12.13;8.65;;;13.50;87.20;;;;;;5048326;28;20021;-67
2022/11/16 04:37:48;;;;;;;12.10;8.40;;;13.50;87.20;;;;;;5037071;28;20079;-67
2022/11/16 04:40:20;;;;;;;12.02;8.10;;;13.50;87.20;;;;;;5027773;28;20021;-67
2022/11/16 04:42:57;;;;;;;13.18;8.60;;;13.50;87.20;;;;;;5018317;28;20044;-67
2022/11/16 04:48:09;;;;;;;10.13;6.68;;;13.50;87.20;;;;;;5032046;28;20022;-67
2022/11/16 04:50:36;;;;;;;12.70;8.20;;;13.50;87.20;;;;;;5035465;28;20140;-67
2022/11/16 04:53:04;;;;;;;11.73;7.88;;;13.50;87.30;;;;;;5030918;28;20036;-67
2022/11/16 04:55:33;;;;;;;10.10;7.50;;;13.50;87.30;;;;;;5034526;28;20029;-67
2022/11/16 04:57:59;;;;;;;10.55;7.47;;;13.50;87.30;;;;;;5035660;28;20022;-67
2022/11/16 05:00:26;;;;;;;10.88;7.35;;;13.50;87.30;;;;;;5034466;28;20033;-67
2022/11/16 05:02:51;;;;;;;11.02;6.95;;;13.50;87.30;;;;;;5035273;28;20522;-67
2022/11/16 05:05:17;;;;;;;9.73;6.07;;;13.50;87.30;;;;;;5035192;28;20109;-67
2022/11/16 05:07:45;;;;;;;9.45;4.85;;;13.50;87.20;;;;;;5035931;28;20480;-67
2022/11/16 05:10:17;;;;;;;7.93;3.72;;;13.50;87.20;;;;;;5035794;28;20104;-67
2022/11/16 05:12:43;;;;;;;6.53;3.20;;;13.50;87.00;;;;;;5034290;28;20398;-67
2022/11/16 05:15:09;;;;;;;6.53;2.95;;;13.50;86.90;;;;;;5033230;28;20130;-67
2022/11/16 05:17:35;;;;;;;7.85;2.85;;;13.40;86.80;;;;;;5034162;28;20057;-67
2022/11/16 05:22:56;;;;;;;6.18;2.80;;;13.40;86.70;;;;;;5028995;28;20470;-67
2022/11/16 05:25:25;;;;;;;6.30;2.20;;;13.30;86.70;;;;;;5034435;28;20021;-67
2022/11/16 05:27:51;;;;;;;6.68;2.35;;;13.30;86.70;;;;;;5030152;28;20033;-67
2022/11/16 05:30:17;;;;;;;5.53;2.42;;;13.30;86.70;;;;;;5035286;28;20082;-67
2022/11/16 05:32:43;;;;;;;5.07;2.05;;;13.30;86.60;;;;;;5032601;28;20038;-67
2022/11/16 05:35:09;;;;;;;5.97;2.40;;;13.30;86.60;;;;;;5017163;28;20026;-67
2022/11/16 05:37:36;;;;;;;5.47;2.50;;;13.30;86.50;;;;;;5047883;28;20143;-67
2022/11/16 05:40:03;;;;;;;5.85;2.40;;;13.20;86.50;;;;;;5033411;28;20030;-67
2022/11/16 05:42:38;;;;;;;5.85;2.70;;;13.20;86.50;;;;;;5033783;28;20029;-67
2022/11/16 05:45:04;;;;;;;6.88;3.00;;;13.20;86.50;;;;;;5034712;28;20095;-67
2022/11/16 05:47:32;;;;;;;7.63;2.47;;;13.20;86.50;;;;;;5030177;28;20033;-67
2022/11/16 05:49:58;;;;;;;7.60;3.13;;;13.20;86.40;;;;;;5034906;28;20049;-67
2022/11/16 05:52:26;;;;;;;6.22;3.30;;;13.20;86.40;;;;;;5017445;28;20033;-67
2022/11/16 05:54:52;;;;;;;6.55;3.15;;;13.20;86.40;;;;;;5032379;28;20083;-67
2022/11/16 05:57:18;;;;;;;8.13;3.65;;;13.20;86.40;;;;;;5035677;28;20455;-67
2022/11/16 05:59:44;;;;;;;9.35;3.58;;;13.20;86.40;;;;;;5035249;28;20108;-67
2022/11/16 06:02:09;;;;;;;7.85;4.00;;;13.20;86.30;;;;;;5033113;28;20021;-66
2022/11/16 06:04:35;;;;;;;10.15;4.57;;;13.20;86.30;;;;;;5032825;28;20464;-67
2022/11/16 06:07:00;;;;;;;10.25;5.65;;;13.20;86.40;;;;;;5050653;28;20024;-67
2022/11/16 06:09:30;;;;;;;8.88;5.60;;;13.20;86.40;;;;;;5035097;28;20362;-67
2022/11/16 06:12:02;;;;;;;8.75;5.35;;;13.20;86.30;;;;;;5034356;28;20136;-67
2022/11/16 06:14:28;;;;;;;9.82;5.88;;;13.20;86.40;;;;;;5035076;28;20030;-67
2022/11/16 06:16:54;;;;;;;9.43;5.65;;;13.20;86.40;;;;;;5035824;28;20110;-70
2022/11/16 06:19:20;;;;;;;10.07;4.80;;;13.20;86.30;;;;;;5028565;28;20025;-67
2022/11/16 06:21:46;;;;;;;8.88;4.63;;;13.20;86.30;;;;;;5032970;28;20060;-67
2022/11/16 06:24:16;;;;;;;9.70;5.32;;;13.20;86.20;;;;;;5034501;28;20353;-67
2022/11/16 06:26:42;;;;;;;10.27;4.88;;;13.20;86.20;;;;;;5043698;28;20017;-67
2022/11/16 06:29:08;;;;;;;9.13;3.97;;;13.20;86.20;;;;;;5050467;28;20021;-67
2022/11/16 06:31:34;;;;;;;8.23;3.67;;;13.20;86.20;;;;;;5035148;28;20059;-68
2022/11/16 06:34:01;;;;;;;7.60;4.00;;;13.20;86.10;;;;;;5034378;28;20045;-68
2022/11/16 06:36:28;;;;;;;8.82;3.90;;;13.10;86.10;;;;;;5049539;28;20070;-68
2022/11/16 06:38:55;;;;;;;10.27;3.58;;;13.10;86.10;;;;;;5044500;28;20342;-68
2022/11/16 06:41:21;;;;;;;9.02;3.42;;;13.10;86.10;;;;;;5044875;28;20022;-68
2022/11/16 06:43:49;;;;;;;6.75;3.08;;;13.00;86.00;;;;;;5028535;28;20025;-67
2022/11/16 06:46:17;;;;;;;8.38;3.65;;;13.00;86.00;;;;;;5044911;28;20026;-67
2022/11/16 06:48:43;;;;;;;7.18;3.28;;;13.00;85.90;;;;;;5037568;28;20444;-67
2022/11/16 06:51:12;;;;;;;8.48;3.20;;;13.00;85.90;;;;;;5042461;28;20087;-67
2022/11/16 06:53:38;;;;;;;9.60;3.20;;;12.90;85.80;;;;;;5036778;28;20025;-68
2022/11/16 06:56:05;;;;;;;11.20;3.33;;;12.90;85.70;;;;;;5034372;28;20353;-68
2022/11/16 06:58:36;;;;;;;8.18;3.35;;;12.90;85.70;;;;;;5038019;28;20021;-67
2022/11/16 07:01:07;;;;;;;5.88;2.90;;;12.90;85.60;;;;;;5037739;28;20032;-67
2022/11/16 07:03:33;;;;;;;8.18;3.42;;;12.80;85.50;;;;;;5032842;28;20026;-67
2022/11/16 07:06:10;;;;;;;5.90;2.95;;;12.80;85.50;;;;;;5054410;28;20083;-68
2022/11/16 07:08:38;;;;;;;7.40;3.22;;;12.80;85.50;;;;;;5054170;28;20044;-67
2022/11/16 07:11:06;;;;;;;9.93;3.30;;;12.70;85.40;;;;;;5039023;28;20418;-67
2022/11/16 07:13:34;;;;;;;8.93;3.25;;;12.80;85.40;;;;;;5020579;28;20022;-68
2022/11/16 07:16:04;;;;;;;8.48;2.88;;;12.80;85.30;;;;;;5047200;28;20025;-68
2022/11/16 07:18:33;;;;;;;5.82;2.35;;;12.80;85.20;;;;;;5033438;28;20129;-68
2022/11/16 07:21:03;;;;;;;6.30;2.50;;;12.70;85.10;;;;;;5049496;28;20029;-67
2022/11/16 07:23:30;;;;;;;5.82;2.40;;;12.70;85.10;;;;;;5032461;28;20025;-67
2022/11/16 07:26:01;;;;;;;6.30;2.22;;;12.70;85.00;;;;;;5046947;28;20033;-69
2022/11/16 07:28:35;;;;;;;8.20;2.35;;;12.70;84.80;;;;;;5037754;28;20022;-68
2022/11/16 07:31:05;;;;;;;8.18;2.30;;;12.70;84.80;;;;;;5038029;28;20017;-68
2022/11/16 07:33:32;;;;;;;5.82;2.20;;;12.80;84.70;;;;;;5034223;28;20026;-68
2022/11/16 07:36:29;;;;;;;6.75;2.00;;;12.80;84.60;;;;;;5042918;28;20030;-67
2022/11/16 07:38:55;;;;;;;6.00;2.80;;;12.70;84.40;;;;;;5026114;28;20026;-67
2022/11/16 07:41:23;;;;;;;7.03;2.03;;;12.80;84.30;;;;;;5031620;28;20021;-67
2022/11/16 07:44:00;;;;;;;6.82;2.30;;;12.70;84.20;;;;;;5033195;28;20460;-67
2022/11/16 07:46:30;;;;;;;6.55;2.30;;;12.70;84.20;;;;;;5039925;28;20021;-67
2022/11/16 07:48:56;;;;;;;8.25;2.58;;;12.70;84.20;;;;;;5017548;28;20021;-68
2022/11/16 07:51:57;;;;;;;6.75;2.80;;;12.70;84.20;;;;;;5016441;28;20044;-67
2022/11/16 07:54:43;;;;;;;6.25;2.90;;;12.60;84.20;;;;;;5032843;28;20099;-68
2022/11/16 07:57:08;;;;;;;8.82;3.03;;;12.60;84.20;;;;;;5028893;28;20064;-67
2022/11/16 07:59:35;;;;;;;7.53;3.30;;;12.60;84.20;;;;;;5026479;28;20030;-68
2022/11/16 08:02:02;;;;;;;7.47;2.85;;;12.70;84.20;;;;;;5033439;28;20365;-67
2022/11/16 08:04:28;;;;;;;7.85;3.03;;;12.70;84.10;;;;;;5032219;28;20163;-67
2022/11/16 08:06:54;;;;;;;10.63;3.28;;;12.70;84.00;;;;;;5037114;28;20446;-67
2022/11/16 08:09:20;;;;;;;7.13;3.20;;;12.70;84.00;;;;;;5033347;28;20079;-67
2022/11/16 08:11:49;;;;;;;6.50;2.50;;;12.70;84.10;;;;;;5049595;28;20115;-67
2022/11/16 08:14:17;;;;;;;7.95;2.97;;;12.70;84.00;;;;;;5016125;28;20047;-67
2022/11/16 08:16:43;;;;;;;7.43;3.10;;;12.70;83.90;;;;;;5032421;28;20037;-67
2022/11/16 08:19:12;;;;;;;8.77;3.15;;;12.80;83.90;;;;;;5031678;28;20112;-66
2022/11/16 08:21:38;;;;;;;10.98;3.08;;;12.80;83.80;;;;;;5032633;28;20400;-66
2022/11/16 08:24:03;;;;;;;8.45;3.47;;;12.80;83.80;;;;;;5021951;28;20025;-66
2022/11/16 08:26:30;;;;;;;8.07;3.13;;;12.90;83.60;;;;;;5018794;28;20083;-65
2022/11/16 08:29:01;;;;;;;12.50;4.32;;;12.90;83.50;;;;;;5031714;28;20438;-65
2022/11/16 08:31:32;;;;;;;7.40;3.40;;;12.90;83.40;;;;;;5031380;28;20017;-65
2022/11/16 08:34:06;;;;;;;8.35;3.42;;;13.00;83.30;;;;;;5048357;28;20409;-65
2022/11/16 08:36:33;;;;;;;7.82;3.05;;;13.00;83.20;;;;;;5032733;28;20033;-66
2022/11/16 08:38:59;;;;;;;9.68;3.67;;;13.10;83.10;;;;;;5016742;28;20033;-65
2022/11/16 08:41:26;;;;;;;10.48;2.97;;;13.10;83.00;;;;;;5033013;28;20024;-66
2022/11/16 08:43:53;;;;;;;6.90;3.20;;;13.20;82.90;;;;;;5031820;28;20021;-66
2022/11/16 08:46:20;;;;;;;13.18;3.83;;;13.20;82.80;;;;;;5049567;28;20053;-65
2022/11/16 08:48:54;;;;;;;;;;;13.20;82.80;;;;;;5048716;28;20353;-66
2022/11/16 08:51:20;;;;;;;9.98;3.22;;;13.20;82.70;;;;;;5034290;28;20008;-66
2022/11/16 08:53:56;;;;;;;6.82;3.13;;;13.20;82.60;;;;;;5031942;28;20088;-66
2022/11/16 08:56:25;;;;;;;10.57;3.53;;;13.30;82.60;;;;;;5033768;28;20057;-66
2022/11/16 08:58:52;;;;;;;7.55;3.40;;;13.20;82.40;;;;;;5032662;28;20107;-66
2022/11/16 09:01:20;;;;;;;8.25;3.80;;;13.30;82.40;;;;;;5032685;28;20079;-66
2022/11/16 09:03:46;;;;;;;10.10;3.60;;;13.40;82.30;;;;;;5031838;28;20343;-66
2022/11/16 09:06:12;;;;;;;8.07;3.35;;;13.40;82.10;;;;;;5030688;28;20056;-66
2022/11/16 09:08:40;;;;;;;7.18;2.63;;;13.50;82.00;;;;;;5032582;28;20423;-66
2022/11/16 09:11:08;;;;;;;8.70;3.45;;;13.60;81.80;;;;;;5032654;28;20017;-67
2022/11/16 09:13:33;;;;;;;8.65;3.08;;;13.70;81.50;;;;;;5033558;28;20152;-66
2022/11/16 09:16:00;;;;;;;10.63;3.58;;;13.70;81.30;;;;;;5034038;28;20460;-66
2022/11/16 09:18:26;;;;;;;8.60;2.97;;;13.80;81.10;;;;;;5036018;28;20050;-67
2022/11/16 09:20:52;;;;;;;8.07;2.75;;;13.90;80.90;;;;;;5034878;28;20039;-67
2022/11/16 09:23:17;;;;;;;9.05;3.33;;;13.90;80.60;;;;;;5036551;28;20341;-67
2022/11/16 09:25:47;;;;;;;8.73;3.13;;;14.00;80.30;;;;;;5047790;28;20029;-67
2022/11/16 09:28:20;;;;;;;10.77;3.75;;;14.10;80.00;;;;;;5070816;28;20035;-67
2022/11/16 09:30:48;;;;;;;9.15;4.72;;;14.10;79.70;;;;;;5040705;28;20438;-67
2022/11/16 09:33:13;;;;;;;10.45;3.95;;;14.10;80.30;;;;;;5035765;28;20103;-67
2022/11/16 09:35:39;;;;;;;7.25;2.92;;;14.10;79.70;;;;;;5034905;28;20128;-67
2022/11/16 09:38:05;;;;;;;9.48;3.40;;;14.10;79.40;;;;;;5039171;28;20033;-66
2022/11/16 09:40:37;;;;;;;9.07;3.17;;;14.10;79.40;;;;;;5055534;28;20111;-67
2022/11/16 09:43:26;;;;;;;9.43;2.88;;;14.10;79.30;;;;;;5035876;28;20128;-67
2022/11/16 09:46:01;;;;;;;10.40;2.58;;;14.10;79.00;;;;;;5035366;28;20124;-68
2022/11/16 09:48:27;;;;;;;8.98;2.88;;;14.20;78.90;;;;;;5050582;28;20032;-67
2022/11/16 09:50:58;;;;;;;7.00;2.55;;;14.30;78.60;;;;;;5039473;28;20053;-67
2022/11/16 09:53:40;;;;;;;7.65;2.53;;;14.40;78.10;;;;;;5039360;28;20036;-67
2022/11/16 09:56:12;;;;;;;9.05;2.92;;;14.70;77.80;;;;;;5044979;28;20167;-67
2022/11/16 09:58:47;;;;;;;7.82;2.58;;;14.80;77.40;;;;;;5041385;28;20347;-68
2022/11/16 10:01:31;;;;;;;10.52;2.40;;;15.00;76.90;;;;;;5055382;28;20171;-67
2022/11/16 10:04:05;;;;;;;7.32;2.25;;;15.20;76.20;;;;;;5034569;28;20025;-68
2022/11/16 10:07:00;;;;;;;14.98;2.53;;;15.30;76.00;;;;;;5034603;28;20038;-68
2022/11/16 10:09:27;;;;;;;6.47;2.03;;;15.40;75.50;;;;;;5040934;28;20025;-68
2022/11/16 10:12:23;;;;;;;5.68;2.08;;;15.50;75.40;;;;;;5040623;28;20068;-67
2022/11/16 10:15:14;;;;;;;6.93;2.28;;;15.60;75.40;;;;;;5045831;28;20353;-68
2022/11/16 10:18:01;;;;;;;7.40;2.30;;;15.80;74.40;;;;;;5020175;28;20394;-67
2022/11/16 10:20:52;;;;;;;5.57;1.80;;;15.80;74.00;;;;;;5040449;28;20116;-66
2022/11/16 10:23:51;;;;;;;6.57;2.00;;;15.90;73.30;;;;;;5004439;28;20183;-67
2022/11/16 10:26:43;;;;;;;6.82;2.13;;;16.00;73.10;;;;;;5049898;28;20107;-67
2022/11/16 10:29:12;;;;;;;;;;;16.10;73.00;;;;;;5025735;28;20068;-67
2022/11/16 10:31:37;;;;;;;7.88;2.10;;;16.20;73.30;;;;;;5054683;28;19995;-67
2022/11/16 10:34:07;;;;;;;6.40;1.92;;;16.10;73.00;;;;;;5011241;28;20124;-67
2022/11/16 10:36:36;;;;;;;6.32;1.85;;;16.20;72.60;;;;;;5052461;28;20467;-68
2022/11/16 10:39:11;;;;;;;5.57;2.13;;;16.20;72.30;;;;;;5054743;28;20033;-68
2022/11/16 10:41:43;;;;;;;8.85;1.83;;;16.20;71.90;;;;;;5054957;28;20028;-67
2022/11/16 10:44:19;;;;;;;5.97;2.08;;;16.20;71.60;;;;;;5033110;28;20034;-67
2022/11/16 10:46:56;;;;;;;8.52;2.15;;;16.20;71.50;;;;;;5033871;28;20100;-67
2022/11/16 10:49:33;;;;;;;8.40;1.90;;;16.20;71.40;;;;;;5034759;28;20091;-67
2022/11/16 10:51:58;;;;;;;7.07;2.20;;;16.00;71.60;;;;;;5050681;28;20052;-68
2022/11/16 10:54:24;;;;;;;8.52;2.80;;;15.80;71.80;;;;;;5034980;28;20080;-67
2022/11/16 10:57:04;;;;;;;10.75;3.17;;;15.80;71.80;;;;;;5035629;28;20349;-67
2022/11/16 10:59:39;;;;;;;9.35;2.35;;;15.90;71.50;;;;;;5035690;28;20036;-68
2022/11/16 11:02:24;;;;;;;7.72;2.20;;;15.80;71.40;;;;;;5034050;28;20033;-68
2022/11/16 11:05:19;;;;;;;6.97;1.80;;;15.80;71.40;;;;;;5032853;28;20037;-68
2022/11/16 11:08:03;;;;;;;8.38;2.08;;;15.70;71.50;;;;;;5035499;28;20087;-67
2022/11/16 11:10:32;;;;;;;6.40;1.95;;;15.70;71.30;;;;;;5033775;28;20354;-67
2022/11/16 11:13:03;;;;;;;7.40;2.55;;;15.80;71.50;;;;;;5033964;28;20053;-68
2022/11/16 11:15:28;;;;;;;8.63;2.07;;;15.70;71.20;;;;;;5035306;28;20025;-67
2022/11/16 11:18:19;;;;;;;6.35;2.20;;;15.70;71.10;;;;;;5049807;28;20095;-67
2022/11/16 11:21:09;;;;;;;7.05;2.17;;;15.60;71.00;;;;;;5034981;28;20132;-68
2022/11/16 11:23:50;;;;;;;10.45;2.47;;;15.40;71.10;;;;;;5028252;28;20041;-67
2022/11/16 11:26:45;;;;;;;;;;;15.30;71.30;;;;;;5050871;28;20032;-68
2022/11/16 11:29:31;;;;;;;7.00;2.15;;;15.20;71.80;;;;;;5034224;28;20007;-68
2022/11/16 11:32:03;;;;;;;6.45;2.22;;;15.00;71.80;;;;;;5021733;28;20520;-68
2022/11/16 11:34:33;;;;;;;7.75;2.13;;;15.00;71.80;;;;;;5032670;28;20041;-67
2022/11/16 11:37:04;;;;;;;7.03;2.65;;;15.00;71.70;;;;;;5039854;28;20423;-68
2022/11/16 11:39:35;;;;;;;7.50;2.38;;;14.90;71.60;;;;;;5048041;28;20052;-68
2022/11/16 11:42:00;;;;;;;8.52;2.20;;;14.90;71.60;;;;;;5041797;28;20030;-68
2022/11/16 11:44:34;;;;;;;10.00;2.28;;;14.80;71.80;;;;;;5032092;28;20032;-68
2022/11/16 11:47:36;;;;;;;9.35;2.65;;;14.80;71.80;;;;;;5032357;28;20032;-67
2022/11/16 11:50:15;;;;;;;7.85;2.20;;;14.70;71.80;;;;;;5031324;28;20342;-67
2022/11/16 11:53:06;;;;;;;8.80;2.88;;;14.70;71.90;;;;;;5032105;28;20364;-67
2022/11/16 11:55:32;;;;;;;7.78;2.40;;;14.60;72.00;;;;;;5022435;28;20497;-68
2022/11/16 11:58:00;;;;;;;7.82;2.13;;;14.60;72.10;;;;;;5033842;28;20113;-67
2022/11/16 12:00:35;;;;;;;7.95;2.30;;;14.50;72.00;;;;;;5035522;28;20029;-67
2022/11/16 12:03:20;;;;;;;6.82;2.00;;;14.50;72.20;;;;;;5033977;28;20043;-67
2022/11/16 12:06:26;;;;;;;8.38;2.10;;;14.50;72.10;;;;;;5026352;28;20501;-67
2022/11/16 12:09:09;;;;;;;8.40;2.25;;;14.50;72.20;;;;;;5033081;28;20026;-67
2022/11/16 12:11:58;;;;;;;8.70;2.38;;;14.40;72.60;;;;;;5036091;28;20041;-68
2022/11/16 12:14:34;;;;;;;7.68;2.28;;;14.40;71.90;;;;;;5016645;28;20403;-68
2022/11/16 12:17:07;;;;;;;8.57;1.90;;;14.40;72.70;;;;;;5032829;28;20041;-67
2022/11/16 12:19:57;;;;;;;7.65;1.88;;;14.30;71.90;;;;;;5044208;28;20115;-68
2022/11/16 12:22:47;;;;;;;7.45;1.70;;;14.30;71.80;;;;;;5032558;28;20033;-68
2022/11/16 12:25:40;;;;;;;7.05;1.77;;;14.30;71.70;;;;;;5028631;28;20035;-68
2022/11/16 12:28:18;;;;;;;8.15;2.05;;;14.30;71.70;;;;;;5047377;28;20056;-68
2022/11/16 12:31:17;;;;;;;6.97;1.52;;;14.30;71.60;;;;;;5031511;28;20022;-68
2022/11/16 12:34:00;;;;;;;6.10;1.73;;;14.30;71.50;;;;;;5032357;28;20025;-68
2022/11/16 12:36:58;;;;;;;5.55;1.67;;;14.30;71.50;;;;;;5033641;28;20454;-67
2022/11/16 12:40:11;;;;;;;10.98;1.92;;;14.40;71.40;;;;;;5022460;28;20039;-67
2022/11/16 12:42:59;;;;;;;5.75;1.45;;;14.40;71.30;;;;;;5030740;28;20041;-68
2022/11/16 12:45:47;;;;;;;6.30;1.52;;;14.50;71.30;;;;;;5028792;28;20442;-68
2022/11/16 12:48:24;;;;;;;6.53;1.95;;;14.50;71.10;;;;;;5033957;28;20560;-67
2022/11/16 12:51:05;;;;;;;6.15;1.63;;;14.50;71.00;;;;;;5029551;28;20026;-67
2022/11/16 12:53:36;;;;;;;7.05;1.75;;;14.50;71.00;;;;;;5013380;28;20041;-67
2022/11/16 12:56:11;;;;;;;8.25;1.85;;;14.50;71.10;;;;;;5036218;28;20056;-67
2022/11/16 12:58:58;;;;;;;8.85;2.65;;;14.40;71.10;;;;;;5034623;28;20542;-67
2022/11/16 13:01:37;;;;;;;10.35;2.85;;;14.40;71.10;;;;;;5036227;28;20316;-67
2022/11/16 13:04:16;;;;;;;9.18;3.10;;;14.30;71.10;;;;;;5033286;28;20120;-67
2022/11/16 13:06:55;;;;;;;7.68;2.20;;;14.30;71.10;;;;;;5035975;28;20183;-67
2022/11/16 13:09:26;;;;;;;8.13;2.75;;;14.20;71.20;;;;;;5018049;28;20037;-68
2022/11/16 13:11:57;;;;;;;8.73;2.40;;;14.20;71.20;;;;;;5019328;28;20045;-68
2022/11/16 13:14:41;;;;;;;7.23;2.20;;;14.20;71.30;;;;;;5018908;28;20033;-68
2022/11/16 13:17:09;;;;;;;11.63;2.60;;;14.20;71.20;;;;;;5033420;28;20341;-68
2022/11/16 13:19:38;;;;;;;6.22;2.05;;;14.20;71.30;;;;;;5030126;28;20441;-69
2022/11/16 13:22:12;;;;;;;6.97;2.22;;;14.20;71.30;;;;;;5009489;28;20037;-68
2022/11/16 13:24:50;;;;;;;7.15;1.50;;;14.20;71.30;;;;;;5048591;28;20037;-68
2022/11/16 13:27:27;;;;;;;11.43;2.03;;;14.20;71.20;;;;;;5035501;28;20017;-67
2022/11/16 13:30:04;;;;;;;6.43;1.88;;;14.20;71.10;;;;;;5021434;28;20026;-68
2022/11/16 13:32:51;;;;;;;6.32;1.60;;;14.20;70.90;;;;;;5036104;28;20026;-68
2022/11/16 13:35:17;;;;;;;9.07;1.65;;;14.20;70.90;;;;;;5035239;28;20056;-68
2022/11/16 13:37:47;;;;;;;7.40;1.70;;;14.20;70.70;;;;;;5034880;28;20037;-68
2022/11/16 13:40:26;;;;;;;9.77;1.67;;;14.20;70.40;;;;;;5035253;28;20103;-68
2022/11/16 13:43:10;;;;;;;7.40;1.92;;;14.20;70.10;;;;;;5032525;28;20136;-68
2022/11/16 13:45:59;;;;;;;6.65;1.38;;;14.20;70.00;;;;;;5025893;28;20468;-67
2022/11/16 13:48:29;;;;;;;8.05;1.70;;;14.20;70.00;;;;;;5033267;28;20116;-67
2022/11/16 13:50:57;;;;;;;7.50;1.80;;;14.20;70.10;;;;;;5034152;28;20059;-67